createdAt,value
2022-11-02T00:02:17.154Z,17.10
2022-11-02T00:04:44.042Z,18.60
2022-11-02T00:07:10.969Z,22.15
2022-11-02T00:09:37.707Z,20.15
2022-11-02T00:12:04.967Z,17.33
2022-11-02T00:14:31.728Z,20.02
2022-11-02T00:16:58.715Z,18.95
2022-11-02T00:19:25.521Z,19.05
2022-11-02T00:21:52.933Z,16.80
2022-11-02T00:24:19.693Z,19.20
2022-11-02T00:26:46.733Z,23.40
2022-11-02T00:29:13.517Z,18.58
2022-11-02T00:31:40.495Z,22.85
2022-11-02T00:34:07.247Z,18.73
2022-11-02T00:36:34.391Z,22.00
2022-11-02T00:39:01.182Z,16.65
2022-11-02T00:41:28.174Z,21.80
2022-11-02T00:43:54.943Z,18.55
2022-11-02T00:46:21.915Z,17.98
2022-11-02T00:48:48.673Z,20.52
2022-11-02T00:51:15.651Z,21.50
2022-11-02T00:53:42.387Z,16.17
2022-11-02T00:56:09.353Z,22.95
2022-11-02T00:58:36.090Z,16.10
2022-11-02T01:01:08.722Z,22.35
2022-11-02T01:03:35.595Z,21.98
2022-11-02T01:06:13.672Z,23.92
2022-11-02T01:08:40.839Z,22.30
2022-11-02T01:11:12.637Z,23.40
2022-11-02T01:13:39.394Z,20.33
2022-11-02T01:16:06.910Z,20.98
2022-11-02T01:18:33.677Z,24.48
2022-11-02T01:21:00.832Z,22.67
2022-11-02T01:23:27.632Z,22.35
2022-11-02T01:25:54.606Z,20.17
2022-11-02T01:28:21.384Z,21.13
2022-11-02T01:30:48.824Z,20.80
2022-11-02T01:33:15.631Z,22.30
2022-11-02T01:35:42.939Z,21.90
2022-11-02T01:38:09.654Z,29.40
2022-11-02T01:40:39.109Z,22.73
2022-11-02T01:43:32.707Z,19.83
2022-11-02T01:46:12.624Z,26.10
2022-11-02T01:48:48.143Z,25.45
2022-11-02T01:51:30.259Z,19.73
2022-11-02T01:54:02.618Z,18.83
2022-11-02T01:56:32.670Z,21.13
2022-11-02T01:59:02.990Z,19.02
2022-11-02T02:01:31.421Z,21.80
2022-11-02T02:03:59.379Z,20.65
2022-11-02T02:06:26.543Z,21.10
2022-11-02T02:08:55.293Z,21.60
2022-11-02T02:11:32.844Z,21.98
2022-11-02T02:14:04.616Z,22.52
2022-11-02T02:16:58.499Z,17.40
2022-11-02T02:19:28.481Z,18.73
2022-11-02T02:22:08.389Z,21.80
2022-11-02T02:25:12.688Z,19.70
2022-11-02T02:28:25.244Z,19.67
2022-11-02T02:30:59.055Z,18.88
2022-11-02T02:33:48.525Z,19.33
2022-11-02T02:36:24.636Z,21.30
2022-11-02T02:39:05.475Z,17.90
2022-11-02T02:41:40.059Z,22.98
2022-11-02T02:44:12.061Z,22.60
2022-11-02T02:47:14.005Z,18.90
2022-11-02T02:49:59.175Z,22.10
2022-11-02T02:52:29.506Z,20.35
2022-11-02T02:55:00.005Z,20.42
2022-11-02T02:57:30.641Z,21.55
2022-11-02T02:59:57.637Z,19.85
2022-11-02T03:02:32.713Z,23.38
2022-11-02T03:05:00.084Z,19.17
2022-11-02T03:07:32.916Z,18.33
2022-11-02T03:10:16.977Z,20.75
2022-11-02T03:13:04.853Z,22.25
2022-11-02T03:15:40.822Z,18.73
2022-11-02T03:18:22.898Z,19.13
2022-11-02T03:20:52.615Z,19.70
2022-11-02T03:23:31.074Z,20.38
2022-11-02T03:26:14.704Z,22.52
2022-11-02T03:29:03.475Z,24.27
2022-11-02T03:31:36.190Z,20.15
2022-11-02T03:34:25.587Z,22.65
2022-11-02T03:37:06.192Z,22.90
2022-11-02T03:39:41.017Z,18.77
2022-11-02T03:42:12.636Z,20.52
2022-11-02T03:44:41.326Z,25.00
2022-11-02T03:47:12.232Z,20.73
2022-11-02T03:49:42.333Z,20.08
2022-11-02T03:52:16.353Z,23.33
2022-11-02T03:54:56.031Z,20.15
2022-11-02T03:57:29.328Z,22.65
2022-11-02T04:00:16.643Z,22.85
2022-11-02T04:02:48.317Z,19.92
2022-11-02T04:05:16.333Z,22.58
2022-11-02T04:08:05.302Z,21.95
2022-11-02T04:10:32.309Z,24.30
2022-11-02T04:13:18.025Z,22.77
2022-11-02T04:15:45.210Z,27.00
2022-11-02T04:18:30.829Z,24.42
2022-11-02T04:20:57.593Z,22.50
2022-11-02T04:23:43.424Z,22.15
2022-11-02T04:26:10.172Z,20.00
2022-11-02T04:28:37.121Z,24.05
2022-11-02T04:31:03.875Z,22.30
2022-11-02T04:33:34.464Z,26.15
2022-11-02T04:36:03.080Z,25.27
2022-11-02T04:38:43.285Z,23.38
2022-11-02T04:41:31.911Z,28.27
2022-11-02T04:43:59.555Z,27.52
2022-11-02T04:46:29.846Z,29.02
2022-11-02T04:48:57.230Z,25.70
2022-11-02T04:51:26.499Z,27.33
2022-11-02T04:53:54.868Z,30.23
2022-11-02T04:56:22.207Z,34.55
2022-11-02T04:58:50.921Z,25.65
2022-11-02T05:01:20.095Z,29.48
2022-11-02T05:03:50.859Z,26.90
2022-11-02T05:06:19.501Z,31.85
2022-11-02T05:08:46.750Z,25.95
2022-11-02T05:11:13.844Z,36.35
2022-11-02T05:13:44.729Z,28.38
2022-11-02T05:16:16.528Z,30.45
2022-11-02T05:18:43.578Z,28.50
2022-11-02T05:21:12.164Z,27.88
2022-11-02T05:23:39.814Z,29.20
2022-11-02T05:26:10.175Z,26.95
2022-11-02T05:28:37.140Z,31.90
2022-11-02T05:31:04.667Z,28.92
2022-11-02T05:33:33.098Z,27.38
2022-11-02T05:36:00.399Z,25.50
2022-11-02T05:38:28.176Z,29.77
2022-11-02T05:40:56.988Z,27.52
2022-11-02T05:43:24.997Z,25.05
2022-11-02T05:46:00.032Z,25.40
2022-11-02T05:48:28.629Z,25.40
2022-11-02T05:51:00.117Z,32.15
2022-11-02T05:53:27.782Z,26.35
2022-11-02T05:55:59.226Z,29.92
2022-11-02T05:58:27.035Z,29.58
2022-11-02T06:00:54.051Z,37.22
2022-11-02T06:03:21.066Z,34.13
2022-11-02T06:05:47.878Z,29.17
2022-11-02T06:08:14.880Z,31.58
2022-11-02T06:10:43.376Z,35.33
2022-11-02T06:13:10.474Z,34.40
2022-11-02T06:15:37.199Z,30.67
2022-11-02T06:18:04.305Z,30.23
2022-11-02T06:20:31.259Z,26.85
2022-11-02T06:22:59.084Z,27.30
2022-11-02T06:25:27.234Z,30.00
2022-11-02T06:27:56.765Z,28.17
2022-11-02T06:30:24.933Z,26.50
2022-11-02T06:32:53.412Z,28.98
2022-11-02T06:35:23.048Z,26.80
2022-11-02T06:37:50.037Z,31.25
2022-11-02T06:40:18.367Z,26.73
2022-11-02T06:43:03.434Z,33.75
2022-11-02T06:45:34.394Z,26.88
2022-11-02T06:48:02.179Z,29.90
2022-11-02T06:50:29.766Z,32.63
2022-11-02T06:52:56.706Z,30.67
2022-11-02T06:55:23.460Z,28.40
2022-11-02T06:57:50.414Z,32.60
2022-11-02T07:00:20.896Z,28.27
2022-11-02T07:03:02.713Z,31.73
2022-11-02T07:05:30.169Z,29.80
2022-11-02T07:07:57.228Z,30.77
2022-11-02T07:10:24.485Z,31.55
2022-11-02T07:12:53.857Z,33.80
2022-11-02T07:15:25.490Z,36.80
2022-11-02T07:17:53.048Z,28.40
2022-11-02T07:20:20.293Z,28.85
2022-11-02T07:22:58.822Z,34.53
2022-11-02T07:25:27.465Z,27.35
2022-11-02T07:27:54.518Z,26.08
2022-11-02T07:30:21.319Z,30.70
2022-11-02T07:32:48.662Z,28.67
2022-11-02T07:35:17.474Z,32.65
2022-11-02T07:37:45.175Z,26.65
2022-11-02T07:40:14.299Z,27.05
2022-11-02T07:42:47.658Z,27.38
2022-11-02T07:45:14.473Z,29.15
2022-11-02T07:47:45.532Z,33.15
2022-11-02T07:50:13.740Z,29.30
2022-11-02T07:52:48.914Z,33.85
2022-11-02T07:55:17.493Z,31.05
2022-11-02T07:58:15.554Z,26.48
2022-11-02T08:00:42.620Z,27.73
2022-11-02T08:03:11.596Z,28.75
2022-11-02T08:05:41.284Z,30.23
2022-11-02T08:08:15.101Z,30.20
2022-11-02T08:10:43.106Z,30.35
2022-11-02T08:13:12.839Z,29.83
2022-11-02T08:15:39.735Z,30.25
2022-11-02T08:18:13.716Z,30.15
2022-11-02T08:23:08.926Z,28.15
2022-11-02T08:25:38.131Z,31.10
2022-11-02T08:28:06.185Z,28.13
2022-11-02T08:30:34.121Z,33.63
2022-11-02T08:33:13.054Z,28.80
2022-11-02T08:35:40.672Z,28.10
2022-11-02T08:38:08.871Z,32.15
2022-11-02T08:40:36.598Z,25.13
2022-11-02T08:43:06.418Z,28.48
2022-11-02T08:46:00.636Z,29.63
2022-11-02T08:48:21.856Z,28.50
2022-11-02T08:50:48.909Z,28.33
2022-11-02T08:53:16.326Z,29.02
2022-11-02T08:55:43.097Z,27.85
2022-11-02T08:58:11.291Z,32.38
2022-11-02T09:00:38.072Z,29.77
2022-11-02T09:03:10.800Z,32.15
2022-11-02T09:05:40.843Z,28.60
2022-11-02T09:08:11.856Z,26.27
2022-11-02T09:10:38.866Z,25.83
2022-11-02T09:13:08.276Z,28.25
2022-11-02T09:15:36.886Z,28.02
2022-11-02T09:18:08.112Z,22.67
2022-11-02T09:20:36.061Z,25.90
2022-11-02T09:23:06.100Z,24.42
2022-11-02T09:25:33.023Z,25.85
2022-11-02T09:28:00.171Z,25.67
2022-11-02T09:30:28.822Z,25.58
2022-11-02T09:32:58.246Z,24.23
2022-11-02T09:35:26.518Z,29.65
2022-11-02T09:37:53.569Z,24.85
2022-11-02T09:40:25.833Z,28.10
2022-11-02T09:43:03.297Z,27.55
2022-11-02T09:45:36.345Z,27.05
2022-11-02T09:48:20.825Z,26.67
2022-11-02T09:51:14.350Z,22.98
2022-11-02T09:53:47.305Z,24.15
2022-11-02T09:56:19.759Z,27.37
2022-11-02T09:58:53.458Z,24.63
2022-11-02T10:01:34.515Z,31.55
2022-11-02T10:04:20.219Z,23.95
2022-11-02T10:06:56.704Z,28.02
2022-11-02T10:09:37.998Z,30.15
2022-11-02T10:12:26.780Z,24.25
2022-11-02T10:14:59.486Z,27.02
2022-11-02T10:17:29.162Z,32.08
2022-11-02T10:20:00.087Z,27.58
2022-11-02T10:22:39.480Z,24.02
2022-11-02T10:25:07.934Z,23.88
2022-11-02T10:27:39.354Z,26.80
2022-11-02T10:30:19.532Z,22.25
2022-11-02T10:32:50.872Z,25.15
2022-11-02T10:36:12.065Z,22.67
2022-11-02T10:38:38.722Z,23.98
2022-11-02T10:41:20.273Z,22.92
2022-11-02T10:43:59.654Z,24.70
2022-11-02T10:46:32.349Z,27.77
2022-11-02T10:49:48.046Z,27.00
2022-11-02T10:52:17.102Z,27.35
2022-11-02T10:54:43.886Z,23.90
2022-11-02T10:57:18.755Z,22.77
2022-11-02T10:59:45.497Z,24.85
2022-11-02T11:02:15.199Z,25.42
2022-11-02T11:04:42.895Z,30.10
2022-11-02T11:07:18.988Z,37.42
2022-11-02T11:09:46.851Z,22.92
2022-11-02T11:12:22.286Z,22.40
2022-11-02T11:20:39.219Z,17.40
2022-11-02T11:23:15.765Z,16.67
2022-11-02T11:25:43.405Z,19.75
2022-11-02T11:28:25.745Z,17.13
2022-11-02T11:31:22.191Z,16.00
2022-11-02T11:33:55.848Z,14.43
2022-11-02T11:36:27.861Z,12.63
2022-11-02T11:38:59.002Z,15.60
2022-11-02T11:41:26.023Z,16.05
2022-11-02T11:43:53.837Z,15.50
2022-11-02T11:46:20.711Z,15.93
2022-11-02T11:48:52.203Z,18.48
2022-11-02T11:51:32.413Z,15.50
2022-11-02T11:54:23.461Z,17.88
2022-11-02T11:56:52.702Z,19.33
2022-11-02T11:59:49.100Z,17.75
2022-11-02T12:02:24.966Z,18.80
2022-11-02T12:04:58.145Z,16.88
2022-11-02T12:07:35.979Z,18.33
2022-11-02T12:10:19.995Z,19.50
2022-11-02T12:13:08.435Z,12.43
2022-11-02T12:15:59.803Z,13.20
2022-11-02T12:19:07.834Z,13.60
2022-11-02T12:22:02.875Z,12.43
2022-11-02T12:24:48.314Z,15.95
2022-11-02T12:27:30.470Z,18.63
2022-11-02T12:30:19.905Z,15.02
2022-11-02T12:33:33.376Z,14.02
2022-11-02T12:36:31.140Z,16.88
2022-11-02T12:39:03.678Z,21.08
2022-11-02T12:41:46.266Z,16.00
2022-11-02T12:44:28.576Z,13.40
2022-11-02T12:47:32.997Z,11.60
2022-11-02T12:50:25.295Z,13.07
2022-11-02T12:53:05.084Z,13.25
2022-11-02T12:55:38.835Z,12.95
2022-11-02T12:58:12.117Z,13.05
2022-11-02T13:00:43.613Z,13.65
2022-11-02T13:03:34.527Z,14.15
2022-11-02T13:06:08.017Z,10.88
2022-11-02T13:08:59.703Z,13.68
2022-11-02T13:11:51.144Z,13.35
2022-11-02T13:14:23.742Z,14.38
2022-11-02T13:16:57.411Z,9.48
2022-11-02T13:19:34.841Z,13.95
2022-11-02T13:22:04.447Z,17.38
2022-11-02T13:24:38.100Z,11.70
2022-11-02T13:27:14.455Z,11.52
2022-11-02T13:32:33.784Z,12.10
2022-11-02T13:35:12.746Z,10.30
2022-11-02T13:37:47.346Z,17.40
2022-11-02T13:40:38.642Z,19.15
2022-11-02T13:43:14.461Z,15.85
2022-11-02T13:45:59.682Z,17.83
2022-11-02T13:49:05.889Z,12.32
2022-11-02T13:51:46.291Z,14.70
2022-11-02T13:54:24.984Z,10.35
2022-11-02T13:56:54.777Z,9.00
2022-11-02T13:59:32.645Z,4.78
2022-11-02T14:02:02.946Z,5.90
2022-11-02T14:04:39.274Z,5.55
2022-11-02T14:07:25.037Z,8.32
2022-11-02T14:09:58.919Z,4.60
2022-11-02T14:12:28.370Z,4.88
2022-11-02T14:15:13.712Z,6.90
2022-11-02T14:18:04.917Z,3.75
2022-11-02T14:20:34.352Z,7.30
2022-11-02T14:23:14.346Z,6.88
2022-11-02T14:25:49.895Z,8.70
2022-11-02T14:28:30.121Z,4.95
2022-11-02T14:31:06.120Z,5.28
2022-11-02T14:34:29.809Z,3.53
2022-11-02T14:36:56.782Z,9.13
2022-11-02T14:39:58.767Z,5.20
2022-11-02T14:42:57.899Z,5.30
2022-11-02T14:45:39.698Z,7.32
2022-11-02T14:48:13.370Z,6.93
2022-11-02T14:50:40.397Z,9.60
2022-11-02T14:53:17.101Z,10.38
2022-11-02T14:55:53.366Z,12.70
2022-11-02T14:58:22.770Z,8.07
2022-11-02T15:00:49.559Z,7.05
2022-11-02T15:03:25.290Z,13.35
2022-11-02T15:06:10.653Z,7.43
2022-11-02T15:08:43.149Z,11.40
2022-11-02T15:11:48.241Z,11.05
2022-11-02T15:14:36.297Z,8.98
2022-11-02T15:17:15.518Z,7.85
2022-11-02T15:19:47.586Z,11.95
2022-11-02T15:22:32.542Z,7.47
2022-11-02T15:25:26.179Z,6.32
2022-11-02T15:28:04.592Z,10.25
2022-11-02T15:30:32.627Z,13.77
2022-11-02T15:33:04.397Z,11.90
2022-11-02T15:35:34.851Z,9.80
2022-11-02T15:38:17.454Z,9.50
2022-11-02T15:40:58.109Z,11.15
2022-11-02T15:43:50.954Z,9.85
2022-11-02T15:46:39.302Z,12.60
2022-11-02T15:49:15.308Z,10.60
2022-11-02T15:52:09.055Z,7.18
2022-11-02T15:55:00.391Z,11.43
2022-11-02T15:57:45.516Z,11.32
2022-11-02T16:00:30.095Z,9.18
2022-11-02T16:03:17.936Z,9.52
2022-11-02T16:05:47.677Z,11.05
2022-11-02T16:08:34.335Z,9.10
2022-11-02T16:11:20.414Z,7.85
2022-11-02T16:14:07.553Z,10.43
2022-11-02T16:16:46.312Z,11.25
2022-11-02T16:19:20.201Z,10.25
2022-11-02T16:21:48.899Z,12.85
2022-11-02T16:24:16.664Z,12.07
2022-11-02T16:26:46.065Z,12.38
2022-11-02T16:29:26.135Z,8.35
2022-11-02T16:31:53.305Z,10.52
2022-11-02T16:34:22.725Z,12.00
2022-11-02T16:36:50.112Z,10.38
2022-11-02T16:39:22.642Z,12.13
2022-11-02T16:41:52.633Z,15.45
2022-11-02T16:44:26.419Z,11.70
2022-11-02T16:47:08.419Z,14.07
2022-11-02T16:49:55.292Z,9.95
2022-11-02T16:52:29.033Z,9.57
2022-11-02T16:54:55.774Z,20.67
2022-11-02T16:57:30.018Z,13.88
2022-11-02T17:00:04.295Z,11.05
2022-11-02T17:02:39.927Z,15.57
2022-11-02T17:05:16.373Z,12.85
2022-11-02T17:07:48.398Z,15.82
2022-11-02T17:10:21.355Z,16.60
2022-11-02T17:12:49.557Z,10.68
2022-11-02T17:15:19.857Z,11.75
2022-11-02T17:17:47.367Z,12.82
2022-11-02T17:20:16.861Z,20.42
2022-11-02T17:22:55.879Z,13.93
2022-11-02T17:25:25.017Z,11.98
2022-11-02T17:27:54.432Z,14.05
2022-11-02T17:30:30.448Z,18.23
2022-11-02T17:32:58.243Z,15.98
2022-11-02T17:35:27.393Z,15.35
2022-11-02T17:37:54.826Z,15.38
2022-11-02T17:40:22.140Z,14.35
2022-11-02T17:43:02.200Z,14.90
2022-11-02T17:45:30.504Z,19.10
2022-11-02T17:47:59.038Z,16.23
2022-11-02T17:50:31.747Z,15.23
2022-11-02T17:53:00.951Z,13.93
2022-11-02T17:55:30.092Z,14.10
2022-11-02T17:57:58.169Z,22.00
2022-11-02T18:00:27.272Z,13.95
2022-11-02T18:02:56.691Z,17.42
2022-11-02T18:05:30.144Z,16.88
2022-11-02T18:10:27.651Z,16.05
2022-11-02T18:12:54.830Z,14.55
2022-11-02T18:15:24.412Z,17.13
2022-11-02T18:17:51.885Z,13.07
2022-11-02T18:20:19.515Z,15.48
2022-11-02T18:22:46.835Z,17.58
2022-11-02T18:25:18.006Z,16.40
2022-11-02T18:27:46.070Z,11.48
2022-11-02T18:30:15.582Z,14.13
2022-11-02T18:32:44.114Z,15.15
2022-11-02T18:35:14.722Z,14.77
2022-11-02T18:37:42.001Z,13.20
2022-11-02T18:40:11.618Z,10.98
2022-11-02T18:42:40.121Z,11.15
2022-11-02T18:45:07.844Z,14.90
2022-11-02T18:47:35.173Z,13.13
2022-11-02T18:50:02.499Z,18.05
2022-11-02T18:52:32.761Z,8.50
2022-11-02T18:55:04.824Z,12.50
2022-11-02T18:57:32.776Z,13.85
